createdAt,value
2019-01-25T00:00:21.205Z,102026.69
2019-01-25T00:02:47.334Z,102028.66
2019-01-25T00:05:13.443Z,102028.66
2019-01-25T00:07:39.358Z,102023.98
2019-01-25T00:10:07.595Z,102020.98
2019-01-25T00:12:33.516Z,102019.25
2019-01-25T00:14:59.422Z,102019.30
2019-01-25T00:17:25.429Z,102009.31
2019-01-25T00:19:51.353Z,101994.48
2019-01-25T00:22:17.245Z,101994.48
2019-01-25T00:24:43.342Z,101998.64
2019-01-25T00:27:09.265Z,102000.42
2019-01-25T00:29:35.160Z,101994.30
2019-01-25T00:32:01.162Z,101956.02
2019-01-25T00:34:27.171Z,102001.11
2019-01-25T00:36:53.095Z,102002.59
2019-01-25T00:39:19.007Z,102002.59
2019-01-25T00:41:44.907Z,101999.68
2019-01-25T00:44:10.813Z,101992.35
2019-01-25T00:46:36.820Z,101988.50
2019-01-25T00:49:02.930Z,101996.37
2019-01-25T00:51:28.857Z,101977.95
2019-01-25T00:53:54.906Z,101977.95
2019-01-25T00:56:20.804Z,101965.06
2019-01-25T00:58:46.815Z,101965.06
2019-01-25T01:01:12.951Z,101960.02
2019-01-25T01:03:38.956Z,101960.53
2019-01-25T01:06:05.257Z,101961.44
2019-01-25T01:08:31.262Z,101951.82
2019-01-25T01:10:57.299Z,101959.37
2019-01-25T01:13:23.330Z,101964.16
2019-01-25T01:15:49.475Z,101952.12
2019-01-25T01:18:15.367Z,101952.12
2019-01-25T01:20:41.378Z,101949.61
2019-01-25T01:23:08.204Z,101950.14
2019-01-25T01:25:34.349Z,101950.14
2019-01-25T01:28:00.296Z,101952.09
2019-01-25T01:30:26.294Z,101952.09
2019-01-25T01:32:52.799Z,101955.58
2019-01-25T01:35:18.804Z,101960.45
2019-01-25T01:37:45.095Z,101947.11
2019-01-25T01:40:21.776Z,101940.62
2019-01-25T01:42:45.089Z,101944.19
2019-01-25T01:45:11.428Z,101944.19
2019-01-25T01:47:37.424Z,101940.87
2019-01-25T01:50:09.767Z,101940.87
2019-01-25T01:52:35.671Z,101940.91
2019-01-25T01:55:01.873Z,101942.69
2019-01-25T01:57:27.874Z,101944.55
2019-01-25T01:59:53.793Z,101944.55
2019-01-25T02:02:19.777Z,101939.44
2019-01-25T02:04:45.692Z,101937.37
2019-01-25T02:07:11.672Z,101937.00
2019-01-25T02:09:37.860Z,101936.59
2019-01-25T02:12:03.980Z,101928.95
2019-01-25T02:14:29.968Z,101928.95
2019-01-25T02:16:55.976Z,101937.64
2019-01-25T02:19:21.980Z,101933.78
2019-01-25T02:21:47.895Z,101929.52
2019-01-25T02:24:13.831Z,101930.00
2019-01-25T02:26:40.006Z,101932.27
2019-01-25T02:29:06.002Z,101926.22
2019-01-25T02:31:31.914Z,101918.91
2019-01-25T02:33:57.822Z,101921.54
2019-01-25T02:36:23.728Z,101922.88
2019-01-25T02:38:49.629Z,101923.36
2019-01-25T02:41:15.628Z,101923.40
2019-01-25T02:43:41.540Z,101919.53
2019-01-25T02:46:07.429Z,101919.58
2019-01-25T02:48:33.320Z,101916.12
2019-01-25T02:50:59.236Z,101910.52
2019-01-25T02:53:25.141Z,101915.75
2019-01-25T02:55:51.040Z,101908.03
2019-01-25T02:58:16.951Z,101912.38
2019-01-25T03:00:42.931Z,101909.36
2019-01-25T03:03:08.845Z,101902.91
2019-01-25T03:05:34.923Z,101909.92
2019-01-25T03:08:01.050Z,101901.30
2019-01-25T03:10:28.904Z,101897.74
2019-01-25T03:12:55.346Z,101900.86
2019-01-25T03:15:23.601Z,101898.70
2019-01-25T03:17:49.704Z,101903.53
2019-01-25T03:20:16.197Z,101903.53
2019-01-25T03:22:42.468Z,101904.42
2019-01-25T03:25:12.167Z,101897.52
2019-01-25T03:27:38.409Z,101898.47
2019-01-25T03:30:08.122Z,101898.47
2019-01-25T03:32:34.041Z,101897.55
2019-01-25T03:35:00.406Z,101896.31
2019-01-25T03:37:26.293Z,101899.36
2019-01-25T03:39:52.192Z,101901.14
2019-01-25T03:42:18.196Z,101890.30
2019-01-25T03:44:44.311Z,101896.35
2019-01-25T03:47:10.314Z,101891.16
2019-01-25T03:49:36.216Z,101889.89
2019-01-25T03:52:02.192Z,101893.38
2019-01-25T03:54:28.323Z,101895.09
2019-01-25T03:56:54.229Z,101891.63
2019-01-25T03:59:20.247Z,101891.70
2019-01-25T04:01:46.237Z,101886.95
2019-01-25T04:04:12.167Z,101889.10
2019-01-25T04:06:38.174Z,101887.84
2019-01-25T04:09:06.876Z,101884.41
2019-01-25T04:11:32.771Z,101882.30
2019-01-25T04:13:58.783Z,101884.04
2019-01-25T04:16:24.815Z,101883.25
2019-01-25T04:18:50.696Z,101874.19
2019-01-25T04:21:16.599Z,101878.88
2019-01-25T04:23:42.515Z,101870.63
2019-01-25T04:26:08.623Z,101868.44
2019-01-25T04:28:34.818Z,101868.44
2019-01-25T04:31:00.708Z,101862.42
2019-01-25T04:33:26.719Z,101860.68
2019-01-25T04:35:52.616Z,101858.97
2019-01-25T04:38:18.527Z,101853.77
2019-01-25T04:40:44.537Z,101851.61
2019-01-25T04:43:10.445Z,101850.83
2019-01-25T04:45:36.378Z,101850.92
2019-01-25T04:48:02.477Z,101850.92
2019-01-25T04:50:28.606Z,101848.77
2019-01-25T04:52:54.684Z,101851.40
2019-01-25T04:55:23.662Z,101851.88
2019-01-25T04:57:50.052Z,101854.92
2019-01-25T05:00:21.393Z,101851.02
2019-01-25T05:02:55.859Z,101851.02
2019-01-25T05:05:22.168Z,101851.11
2019-01-25T05:07:48.168Z,101852.86
2019-01-25T05:10:14.180Z,101844.23
2019-01-25T05:12:40.192Z,101842.42
2019-01-25T05:15:06.318Z,101845.53
2019-01-25T05:17:32.208Z,101849.84
2019-01-25T05:19:58.114Z,101851.17
2019-01-25T05:22:24.008Z,101846.86
2019-01-25T05:24:49.924Z,101846.89
2019-01-25T05:27:15.904Z,101841.70
2019-01-25T05:29:48.054Z,101843.87
2019-01-25T05:32:14.054Z,101843.50
2019-01-25T05:34:39.973Z,101837.44
2019-01-25T05:37:09.685Z,101839.63
2019-01-25T05:39:35.585Z,101842.27
2019-01-25T05:42:01.521Z,101838.77
2019-01-25T05:44:27.407Z,101838.77
2019-01-25T05:46:53.328Z,101845.78
2019-01-25T05:49:22.429Z,101841.02
2019-01-25T05:51:48.454Z,101842.77
2019-01-25T05:54:14.341Z,101838.01
2019-01-25T05:56:41.113Z,101838.45
2019-01-25T05:59:07.034Z,101839.78
2019-01-25T06:01:33.018Z,101827.55
2019-01-25T06:03:58.918Z,101836.70
2019-01-25T06:06:24.931Z,101831.06
2019-01-25T06:08:50.825Z,101832.84
2019-01-25T06:11:16.813Z,101828.52
2019-01-25T06:13:43.016Z,101830.68
2019-01-25T06:16:09.133Z,101827.13
2019-01-25T06:18:35.283Z,101818.88
2019-01-25T06:21:01.481Z,101818.88
2019-01-25T06:23:27.509Z,101830.17
2019-01-25T06:25:57.653Z,101831.06
2019-01-25T06:28:24.040Z,101830.23
2019-01-25T06:30:50.386Z,101829.38
2019-01-25T06:33:16.523Z,101831.60
2019-01-25T06:35:42.444Z,101833.81
2019-01-25T06:38:08.552Z,101829.47
2019-01-25T06:40:34.468Z,101834.27
2019-01-25T06:43:00.382Z,101834.70
2019-01-25T06:45:26.294Z,101833.43
2019-01-25T06:47:52.286Z,101836.52
2019-01-25T06:50:18.405Z,101831.72
2019-01-25T06:52:44.298Z,101829.95
2019-01-25T06:55:11.601Z,101833.81
2019-01-25T06:57:48.741Z,101826.05
2019-01-25T07:00:18.033Z,101834.29
2019-01-25T07:02:44.042Z,101835.62
2019-01-25T07:05:10.132Z,101833.05
2019-01-25T07:07:37.276Z,101840.85
2019-01-25T07:10:06.950Z,101836.13
2019-01-25T07:12:32.874Z,101834.84
2019-01-25T07:14:58.797Z,101828.82
2019-01-25T07:17:24.909Z,101833.14
2019-01-25T07:19:50.821Z,101830.95
2019-01-25T07:22:16.820Z,101836.66
2019-01-25T07:24:42.818Z,101834.08
2019-01-25T07:27:08.853Z,101838.43
2019-01-25T07:29:34.879Z,101832.34
2019-01-25T07:32:01.133Z,101833.64
2019-01-25T07:34:27.069Z,101839.31
2019-01-25T07:36:52.952Z,101832.37
2019-01-25T07:39:20.971Z,101840.17
2019-01-25T07:41:47.005Z,101841.03
2019-01-25T07:44:13.209Z,101840.62
2019-01-25T07:46:39.105Z,101843.28
2019-01-25T07:49:05.058Z,101844.16
2019-01-25T07:51:30.999Z,101838.93
2019-01-25T07:53:56.908Z,101845.88
2019-01-25T07:56:22.865Z,101842.80
2019-01-25T07:58:48.839Z,101840.20
2019-01-25T08:01:14.716Z,101848.03
2019-01-25T08:03:40.725Z,101842.03
2019-01-25T08:06:06.742Z,101846.82
2019-01-25T08:08:32.623Z,101842.50
2019-01-25T08:10:58.538Z,101843.84
2019-01-25T08:13:24.685Z,101839.48
2019-01-25T08:15:50.803Z,101841.67
2019-01-25T08:18:16.848Z,101840.44
2019-01-25T08:20:42.854Z,101839.58
2019-01-25T08:23:08.744Z,101841.27
2019-01-25T08:25:34.661Z,101838.25
2019-01-25T08:28:00.690Z,101795.63
2019-01-25T08:30:26.834Z,101842.56
2019-01-25T08:32:53.059Z,101829.58
2019-01-25T08:35:19.578Z,101833.45
2019-01-25T08:37:45.774Z,101836.95
2019-01-25T08:40:13.519Z,101842.18
2019-01-25T08:42:39.393Z,101842.63
2019-01-25T08:45:08.709Z,101840.05
2019-01-25T08:47:34.602Z,101834.87
2019-01-25T08:50:00.923Z,101835.41
2019-01-25T08:52:26.939Z,101838.45
2019-01-25T08:54:52.985Z,101830.64
2019-01-25T08:57:18.965Z,101838.47
2019-01-25T08:59:45.775Z,101838.09
2019-01-25T09:02:11.860Z,101830.69
2019-01-25T09:04:37.761Z,101837.22
2019-01-25T09:07:03.661Z,101832.02
2019-01-25T09:09:29.699Z,101841.57
2019-01-25T09:11:55.566Z,101832.05
2019-01-25T09:14:21.490Z,101835.06
2019-01-25T09:16:47.507Z,101834.23
2019-01-25T09:19:13.400Z,101836.39
2019-01-25T09:21:39.304Z,101828.59
2019-01-25T09:24:05.341Z,101832.96
2019-01-25T09:26:31.241Z,101829.11
2019-01-25T09:28:57.270Z,101821.77
2019-01-25T09:31:23.259Z,101823.52
2019-01-25T09:33:49.318Z,101820.55
2019-01-25T09:36:15.328Z,101820.98
2019-01-25T09:38:41.692Z,101816.25
2019-01-25T09:41:07.586Z,101814.50
2019-01-25T09:43:33.507Z,101815.39
2019-01-25T09:45:59.488Z,101817.97
2019-01-25T09:48:25.385Z,101820.13
2019-01-25T09:50:52.941Z,101820.11
2019-01-25T09:53:19.013Z,101814.92
2019-01-25T09:55:44.900Z,101818.86
2019-01-25T09:58:14.310Z,101813.20
2019-01-25T10:00:44.038Z,101814.98
2019-01-25T10:03:09.965Z,101813.67
2019-01-25T10:05:36.106Z,101814.59
2019-01-25T10:08:02.289Z,101818.94
2019-01-25T10:10:28.396Z,101816.33
2019-01-25T10:12:54.301Z,101818.91
2019-01-25T10:15:26.269Z,101818.91
2019-01-25T10:17:52.285Z,101821.54
2019-01-25T10:20:18.772Z,101818.09
2019-01-25T10:22:44.776Z,101818.09
2019-01-25T10:25:10.907Z,101821.59
2019-01-25T10:27:37.004Z,101809.44
2019-01-25T10:30:09.628Z,101822.56
2019-01-25T10:32:35.724Z,101820.86
2019-01-25T10:35:01.956Z,101823.09
2019-01-25T10:37:27.964Z,101817.89
2019-01-25T10:39:53.875Z,101827.84
2019-01-25T10:42:19.786Z,101827.84
2019-01-25T10:44:45.689Z,101822.19
2019-01-25T10:47:11.882Z,101828.67
2019-01-25T10:49:37.828Z,101826.48
2019-01-25T10:52:03.907Z,101827.29
2019-01-25T10:54:29.784Z,101823.36
2019-01-25T10:56:55.811Z,101825.11
2019-01-25T10:59:21.741Z,101823.31
2019-01-25T11:01:47.737Z,101827.13
2019-01-25T11:04:13.651Z,101836.14
2019-01-25T11:06:39.563Z,101833.48
2019-01-25T11:09:07.476Z,101834.73
2019-01-25T11:11:33.372Z,101829.00
2019-01-25T11:13:59.304Z,101829.00
2019-01-25T11:16:25.299Z,101837.55
2019-01-25T11:18:51.333Z,101831.47
2019-01-25T11:21:17.256Z,101819.55
2019-01-25T11:23:43.239Z,101824.38
2019-01-25T11:26:09.189Z,101825.59
2019-01-25T11:28:35.213Z,101818.17
2019-01-25T11:31:01.212Z,101815.04
2019-01-25T11:33:27.115Z,101814.59
2019-01-25T11:35:53.355Z,101812.33
2019-01-25T11:38:19.276Z,101811.97
2019-01-25T11:40:45.260Z,101811.97
2019-01-25T11:43:11.168Z,101809.69
2019-01-25T11:45:37.261Z,101806.59
2019-01-25T11:48:06.989Z,101814.30
2019-01-25T11:50:33.241Z,101809.48
2019-01-25T11:52:59.133Z,101813.25
2019-01-25T11:55:25.282Z,101813.16
2019-01-25T11:57:51.378Z,101812.97
2019-01-25T12:00:28.489Z,101812.97
2019-01-25T12:02:54.640Z,101813.80
2019-01-25T12:05:22.195Z,101813.77
2019-01-25T12:07:48.627Z,101806.44
2019-01-25T12:10:18.077Z,101811.67
2019-01-25T12:12:44.180Z,101808.15
2019-01-25T12:15:12.904Z,101805.97
2019-01-25T12:17:39.048Z,101812.97
2019-01-25T12:20:14.084Z,101806.02
2019-01-25T12:22:40.254Z,101798.67
2019-01-25T12:25:08.825Z,101799.50
2019-01-25T12:27:34.995Z,101800.98
2019-01-25T12:30:01.123Z,101800.03
2019-01-25T12:32:27.084Z,101802.56
2019-01-25T12:34:53.087Z,101802.56
2019-01-25T12:37:19.286Z,101796.06
2019-01-25T12:39:45.325Z,101793.37
2019-01-25T12:42:11.229Z,101793.37
2019-01-25T12:44:37.372Z,101797.61
2019-01-25T12:47:03.484Z,101811.11
2019-01-25T12:49:29.433Z,101798.12
2019-01-25T12:51:55.761Z,101798.12
2019-01-25T12:54:21.716Z,101795.55
2019-01-25T12:56:47.717Z,101794.56
2019-01-25T12:59:13.769Z,101801.47
2019-01-25T13:01:40.696Z,101804.08
2019-01-25T13:04:06.812Z,101797.52
2019-01-25T13:06:32.863Z,101799.22
2019-01-25T13:08:58.883Z,101793.17
2019-01-25T13:11:25.048Z,101803.15
2019-01-25T13:13:51.070Z,101796.01
2019-01-25T13:16:17.163Z,101796.01
2019-01-25T13:18:43.124Z,101796.86
2019-01-25T13:21:09.139Z,101794.20
2019-01-25T13:23:35.393Z,101805.78
2019-01-25T13:26:01.526Z,101805.78
2019-01-25T13:28:27.503Z,101806.60
2019-01-25T13:30:53.604Z,101805.71
2019-01-25T13:33:19.597Z,101817.84
2019-01-25T13:35:45.617Z,101817.40
2019-01-25T13:38:11.726Z,101824.64
2019-01-25T13:40:37.761Z,101825.01
2019-01-25T13:43:03.783Z,101811.44
2019-01-25T13:45:29.690Z,101809.73
2019-01-25T13:47:55.835Z,101808.84
2019-01-25T13:50:24.668Z,101807.88
2019-01-25T13:52:50.693Z,101809.52
2019-01-25T13:55:17.008Z,101799.47
2019-01-25T13:57:43.422Z,101809.89
2019-01-25T14:00:32.774Z,101799.39
2019-01-25T14:02:59.001Z,101805.73
2019-01-25T14:05:25.245Z,101802.91
2019-01-25T14:07:51.148Z,101802.91
2019-01-25T14:10:20.829Z,101808.10
2019-01-25T14:12:46.840Z,101808.88
2019-01-25T14:15:12.969Z,101810.14
2019-01-25T14:17:39.078Z,101810.14
2019-01-25T14:20:23.431Z,101800.05
2019-01-25T14:22:49.700Z,101805.65
2019-01-25T14:25:15.922Z,101818.62
2019-01-25T14:27:42.022Z,101803.71
2019-01-25T14:30:23.116Z,101800.56
2019-01-25T14:32:49.254Z,101810.45
2019-01-25T14:35:15.373Z,101799.84
2019-01-25T14:37:41.393Z,101808.31
2019-01-25T14:40:07.736Z,101800.29
2019-01-25T14:42:33.915Z,101805.39
2019-01-25T14:44:59.921Z,101804.53
2019-01-25T14:47:25.821Z,101804.50
2019-01-25T14:49:51.758Z,101806.57
2019-01-25T14:52:17.678Z,101806.03
2019-01-25T14:54:43.615Z,101806.03
2019-01-25T14:57:11.421Z,101804.61
2019-01-25T14:59:37.438Z,101808.34
2019-01-25T15:02:03.586Z,101808.34
2019-01-25T15:04:29.507Z,101806.15
2019-01-25T15:06:55.441Z,101797.36
2019-01-25T15:09:21.548Z,101797.84
2019-01-25T15:11:47.579Z,101799.95
2019-01-25T15:14:13.510Z,101800.27
2019-01-25T15:16:41.050Z,101815.29
2019-01-25T15:19:07.275Z,101810.95
2019-01-25T15:21:33.303Z,101814.88
2019-01-25T15:23:59.229Z,101814.88
2019-01-25T15:26:25.335Z,101804.80
2019-01-25T15:28:51.314Z,101811.67
2019-01-25T15:31:17.306Z,101811.67
2019-01-25T15:33:43.421Z,101816.98
2019-01-25T15:36:09.546Z,101818.69
2019-01-25T15:38:35.731Z,101815.20
2019-01-25T15:41:02.213Z,101815.20
2019-01-25T15:43:28.346Z,101816.98
2019-01-25T15:45:54.389Z,101815.73
2019-01-25T15:48:20.336Z,101815.73
2019-01-25T15:50:46.219Z,101801.03
2019-01-25T15:53:12.420Z,101814.88
2019-01-25T15:55:38.669Z,101808.27
2019-01-25T15:58:04.682Z,101806.98
2019-01-25T16:00:30.783Z,101812.66
2019-01-25T16:02:56.854Z,101817.75
2019-01-25T16:05:23.204Z,101817.26
2019-01-25T16:07:49.920Z,101816.36
2019-01-25T16:10:20.978Z,101810.25
2019-01-25T16:12:47.372Z,101810.25
2019-01-25T16:15:15.512Z,101817.30
2019-01-25T16:17:41.622Z,101817.30
2019-01-25T16:20:10.398Z,101806.94
2019-01-25T16:22:36.515Z,101806.94
2019-01-25T16:25:05.627Z,101816.54
2019-01-25T16:27:31.549Z,101814.39
2019-01-25T16:29:58.802Z,101814.80
2019-01-25T16:32:26.447Z,101762.52
2019-01-25T16:34:52.506Z,101813.78
2019-01-25T16:37:18.659Z,101813.78
2019-01-25T16:39:44.698Z,101822.84
2019-01-25T16:42:10.709Z,101818.83
2019-01-25T16:44:36.658Z,101816.15
2019-01-25T16:47:02.854Z,101813.16
2019-01-25T16:49:28.969Z,101811.90
2019-01-25T16:51:55.006Z,101811.90
2019-01-25T16:54:20.935Z,101813.37
2019-01-25T16:56:47.043Z,101806.84
2019-01-25T16:59:13.179Z,101809.89
2019-01-25T17:01:39.181Z,101804.75
2019-01-25T17:04:05.343Z,101799.93
2019-01-25T17:06:31.365Z,101802.61
2019-01-25T17:08:57.370Z,101800.02
2019-01-25T17:11:23.350Z,101799.03
2019-01-25T17:13:49.393Z,101799.03
2019-01-25T17:16:15.496Z,101797.56
2019-01-25T17:18:41.419Z,101799.17
2019-01-25T17:21:07.467Z,101799.17
2019-01-25T17:23:34.960Z,101796.22
2019-01-25T17:26:01.151Z,101799.63
2019-01-25T17:28:27.451Z,101799.63
2019-01-25T17:30:53.592Z,101802.13
2019-01-25T17:33:19.492Z,101796.55
2019-01-25T17:35:45.415Z,101796.59
2019-01-25T17:38:11.358Z,101800.60
2019-01-25T17:40:46.514Z,101798.02
2019-01-25T17:43:08.909Z,101799.35
2019-01-25T17:45:34.936Z,101797.61
2019-01-25T17:48:01.076Z,101797.61
2019-01-25T17:50:27.221Z,101800.20
2019-01-25T17:52:53.270Z,101795.78
2019-01-25T17:55:19.392Z,101798.73
2019-01-25T17:57:45.535Z,101796.86
2019-01-25T18:00:22.208Z,101796.86
2019-01-25T18:02:48.339Z,101795.52
2019-01-25T18:05:14.652Z,101793.41
2019-01-25T18:07:40.789Z,101737.21
2019-01-25T18:10:14.830Z,101785.52
2019-01-25T18:12:40.859Z,101785.52
2019-01-25T18:15:09.805Z,101776.90
2019-01-25T18:17:35.913Z,101777.03
2019-01-25T18:20:02.469Z,101781.89
2019-01-25T18:22:28.492Z,101781.89
2019-01-25T18:24:54.465Z,101776.66
2019-01-25T18:27:20.798Z,101775.38
2019-01-25T18:29:46.941Z,101772.30
2019-01-25T18:32:12.988Z,101771.89
2019-01-25T18:34:39.098Z,101772.73
2019-01-25T18:37:05.352Z,101766.89
2019-01-25T18:39:31.262Z,101768.20
2019-01-25T18:41:57.298Z,101765.56
2019-01-25T18:44:23.320Z,101764.27
2019-01-25T18:46:49.211Z,101764.27
2019-01-25T18:49:15.283Z,101763.50
2019-01-25T18:51:41.408Z,101772.65
2019-01-25T18:54:07.438Z,101768.68
2019-01-25T18:56:33.353Z,101768.68
2019-01-25T18:58:59.310Z,101763.86
2019-01-25T19:01:25.311Z,101770.02
2019-01-25T19:03:51.219Z,101765.20
2019-01-25T19:06:17.143Z,101772.97
2019-01-25T19:08:43.136Z,101771.17
2019-01-25T19:11:09.265Z,101768.55
2019-01-25T19:13:35.282Z,101771.50
2019-01-25T19:16:01.521Z,101765.34
2019-01-25T19:18:27.538Z,101771.86
2019-01-25T19:20:53.573Z,101761.91
2019-01-25T19:23:19.718Z,101755.83
2019-01-25T19:25:45.633Z,101743.60
2019-01-25T19:28:11.649Z,101743.60
2019-01-25T19:30:40.621Z,101753.06
2019-01-25T19:33:06.720Z,101753.06
2019-01-25T19:35:32.813Z,101761.59
2019-01-25T19:37:59.066Z,101750.20
2019-01-25T19:40:30.375Z,101750.20
2019-01-25T19:42:56.577Z,101762.34
2019-01-25T19:45:25.056Z,101757.03
2019-01-25T19:47:51.153Z,101764.84
2019-01-25T19:50:18.507Z,101754.77
2019-01-25T19:52:44.655Z,101756.59
2019-01-25T19:55:13.265Z,101762.62
2019-01-25T19:57:39.301Z,101757.88
2019-01-25T20:00:14.426Z,101750.16
2019-01-25T20:02:40.562Z,101750.16
2019-01-25T20:05:13.250Z,101753.61
2019-01-25T20:07:39.409Z,101747.98
2019-01-25T20:10:09.124Z,101747.98
2019-01-25T20:12:35.358Z,101749.98
2019-01-25T20:15:01.472Z,101749.98
2019-01-25T20:17:27.410Z,101748.64
2019-01-25T20:19:53.355Z,101744.23
2019-01-25T20:22:19.363Z,101744.98
2019-01-25T20:24:45.754Z,101733.24
2019-01-25T20:27:11.797Z,101735.39
2019-01-25T20:29:37.953Z,101735.39
2019-01-25T20:32:04.070Z,101731.95
2019-01-25T20:34:29.960Z,101731.95
2019-01-25T20:36:56.186Z,101744.05
2019-01-25T20:39:22.072Z,101745.74
2019-01-25T20:41:48.065Z,101734.05
2019-01-25T20:44:14.093Z,101738.87
2019-01-25T20:46:40.258Z,101731.42
2019-01-25T20:49:06.383Z,101733.55
2019-01-25T20:51:33.492Z,101744.41
2019-01-25T20:53:59.514Z,101744.41
2019-01-25T20:56:25.516Z,101740.07
2019-01-25T20:58:51.472Z,101738.73
2019-01-25T21:01:17.470Z,101734.01
2019-01-25T21:03:43.361Z,101733.20
2019-01-25T21:06:09.491Z,101731.95
2019-01-25T21:08:35.644Z,101734.94
2019-01-25T21:11:01.742Z,101732.76
2019-01-25T21:13:27.760Z,101736.69
2019-01-25T21:15:53.709Z,101736.69
2019-01-25T21:18:19.880Z,101739.27
2019-01-25T21:20:46.134Z,101737.17
2019-01-25T21:23:12.282Z,101736.73
2019-01-25T21:25:38.907Z,101736.23
2019-01-25T21:28:05.325Z,101736.23
2019-01-25T21:30:33.414Z,101728.02
2019-01-25T21:32:59.555Z,101725.75
2019-01-25T21:35:25.574Z,101721.95
2019-01-25T21:37:51.663Z,101721.51
2019-01-25T21:40:25.736Z,101721.51
2019-01-25T21:42:51.864Z,101723.34
2019-01-25T21:45:20.117Z,101729.81
2019-01-25T21:47:46.526Z,101719.91
2019-01-25T21:50:17.938Z,101713.88
2019-01-25T21:52:44.166Z,101713.88
2019-01-25T21:55:12.687Z,101710.40
2019-01-25T21:57:38.827Z,101710.40
2019-01-25T22:00:20.093Z,101705.22
2019-01-25T22:02:46.245Z,101705.18
2019-01-25T22:05:12.370Z,101705.63
2019-01-25T22:07:38.498Z,101705.63
2019-01-25T22:10:16.235Z,101707.81
2019-01-25T22:12:42.398Z,101705.18
2019-01-25T22:15:10.800Z,101700.41
2019-01-25T22:17:36.929Z,101700.41
2019-01-25T22:20:09.393Z,101683.63
2019-01-25T22:22:35.528Z,101686.74
2019-01-25T22:25:01.450Z,101686.74
2019-01-25T22:27:27.386Z,101679.79
2019-01-25T22:29:53.495Z,101688.53
2019-01-25T22:32:19.492Z,101685.05
2019-01-25T22:34:45.540Z,101680.72
2019-01-25T22:37:11.450Z,101674.25
2019-01-25T22:39:37.588Z,101674.25
2019-01-25T22:42:03.704Z,101682.11
2019-01-25T22:44:29.831Z,101676.88
2019-01-25T22:46:56.154Z,101675.23
2019-01-25T22:49:22.466Z,101676.88
2019-01-25T22:51:48.418Z,101672.95
2019-01-25T22:54:14.439Z,101679.42
2019-01-25T22:56:40.496Z,101669.88
2019-01-25T22:59:06.510Z,101669.88
2019-01-25T23:01:32.805Z,101675.95
2019-01-25T23:04:23.708Z,101669.08
2019-01-25T23:06:49.872Z,101669.08
2019-01-25T23:09:19.389Z,101668.63
2019-01-25T23:11:45.297Z,101658.36
2019-01-25T23:14:11.340Z,101658.36
2019-01-25T23:16:37.343Z,101657.34
2019-01-25T23:19:03.609Z,101652.39
2019-01-25T23:21:29.731Z,101652.39
2019-01-25T23:23:55.641Z,101654.98
2019-01-25T23:26:21.561Z,101649.27
2019-01-25T23:28:47.464Z,101643.69
2019-01-25T23:31:13.492Z,101645.03
2019-01-25T23:33:39.490Z,101645.12
2019-01-25T23:36:05.440Z,101646.05
2019-01-25T23:38:31.449Z,101649.08
2019-01-25T23:40:57.344Z,101644.59
2019-01-25T23:43:23.433Z,101644.59
2019-01-25T23:45:49.434Z,101647.75
2019-01-25T23:48:15.448Z,101646.02
2019-01-25T23:50:41.515Z,101641.28
2019-01-25T23:53:07.874Z,101638.29
2019-01-25T23:55:33.892Z,101638.82
2019-01-25T23:57:59.809Z,101631.86
